Time;durP1;ratioP1;P1;durP2;ratioP2;P2;SDS_P1;SDS_P2;PMS_P1;PMS_P2;Temp;Humidity;BMP_temperature;BMP_pressure;BME280_temperature;BME280_humidity;BME280_pressure;Samples;Min_cycle;Max_cycle;Signal;HPM_P1;HPM_P2
2023/01/05 00:01:03;;;;;;;1999.90;999.90;;;12.20;99.90;;;;;;4990924;28;20026;-73
2023/01/05 00:03:29;;;;;;;1999.90;999.90;;;12.20;99.90;;;;;;4998091;28;20074;-73
2023/01/05 00:05:59;;;;;;;1999.90;999.90;;;12.20;99.90;;;;;;4997805;28;20031;-73
2023/01/05 00:08:25;;;;;;;1999.90;999.90;;;12.30;99.90;;;;;;4998405;28;20030;-74
2023/01/05 00:24:31;;;;;;;1999.90;999.90;;;12.10;99.90;;;;;;4998233;28;20034;-74
2023/01/05 00:26:57;;;;;;;1999.90;999.90;;;12.10;99.90;;;;;;4980047;28;20030;-73
2023/01/05 00:29:23;;;;;;;1999.90;999.90;;;12.10;99.90;;;;;;4998227;28;20493;-73
2023/01/05 00:31:48;;;;;;;1999.90;999.90;;;12.20;99.90;;;;;;4997181;28;20113;-73
2023/01/05 00:34:14;;;;;;;1999.90;999.90;;;12.10;99.90;;;;;;4996367;28;20625;-74
2023/01/05 00:36:39;;;;;;;1999.90;999.90;;;12.10;99.90;;;;;;5011561;28;20026;-73
2023/01/05 00:39:05;;;;;;;1999.90;999.90;;;12.10;99.90;;;;;;5011841;28;20471;-73
2023/01/05 00:41:31;;;;;;;1999.90;999.90;;;12.20;99.90;;;;;;5011467;28;20034;-72
2023/01/05 00:43:56;;;;;;;1999.90;999.90;;;12.10;99.90;;;;;;4996446;28;20031;-74
2023/01/05 00:46:22;;;;;;;1999.90;999.90;;;12.10;99.90;;;;;;4996328;28;20026;-73
2023/01/05 00:48:47;;;;;;;1999.90;999.90;;;12.10;99.90;;;;;;4978516;28;20360;-73
2023/01/05 00:51:13;;;;;;;1999.90;999.90;;;12.10;99.90;;;;;;4996546;28;20038;-72
2023/01/05 00:53:38;;;;;;;1999.90;999.90;;;12.00;99.90;;;;;;4996126;28;20504;-74
2023/01/05 00:56:04;;;;;;;1999.90;999.90;;;12.00;99.90;;;;;;4996293;28;20039;-73
2023/01/05 00:58:29;;;;;;;1999.90;999.90;;;12.00;99.90;;;;;;4996297;28;20042;-73
2023/01/05 01:00:55;;;;;;;1999.90;999.90;;;12.00;99.90;;;;;;4995858;28;20034;-73
2023/01/05 01:03:20;;;;;;;1999.90;999.90;;;12.00;99.90;;;;;;4995917;28;20035;-73
2023/01/05 01:05:58;;;;;;;1999.90;999.90;;;12.00;99.90;;;;;;4996351;28;20504;-72
2023/01/05 01:08:23;;;;;;;1999.90;999.90;;;12.00;99.90;;;;;;4996544;28;20476;-73
2023/01/05 01:10:49;;;;;;;1999.90;999.90;;;12.00;99.90;;;;;;4996285;28;20109;-73
2023/01/05 01:13:15;;;;;;;1999.90;999.90;;;12.00;99.90;;;;;;4995687;28;20043;-73
2023/01/05 01:15:40;;;;;;;1999.90;999.90;;;12.00;99.90;;;;;;4995910;28;20081;-73
2023/01/05 01:18:06;;;;;;;1999.90;999.90;;;12.10;99.90;;;;;;4995270;28;20042;-73
2023/01/05 01:20:31;;;;;;;1999.90;999.90;;;12.10;99.90;;;;;;4996246;28;20043;-73
2023/01/05 01:22:59;;;;;;;1999.90;999.90;;;12.10;99.90;;;;;;4995787;28;20034;-73
2023/01/05 01:25:25;;;;;;;1999.90;999.90;;;12.10;99.90;;;;;;4996027;28;20110;-73
2023/01/05 01:27:50;;;;;;;1999.90;999.90;;;12.10;99.90;;;;;;4995807;28;20113;-73
2023/01/05 01:30:16;;;;;;;1999.90;999.90;;;12.10;99.90;;;;;;4995586;28;20489;-74
2023/01/05 01:32:42;;;;;;;1999.90;999.90;;;12.20;99.90;;;;;;4995680;28;20051;-73
2023/01/05 01:35:08;;;;;;;1999.90;999.90;;;12.20;99.90;;;;;;4995977;28;20031;-73
2023/01/05 01:37:33;;;;;;;1999.90;999.90;;;12.20;99.90;;;;;;4995475;28;20069;-74
2023/01/05 01:39:59;;;;;;;1999.90;999.90;;;12.20;99.90;;;;;;4995486;28;20159;-73
2023/01/05 01:42:24;;;;;;;1999.90;999.90;;;12.20;99.90;;;;;;4977552;28;20034;-73
2023/01/05 01:44:59;;;;;;;1999.90;999.90;;;12.30;99.90;;;;;;4995841;28;20505;-73
2023/01/05 01:47:55;;;;;;;1999.90;999.90;;;12.20;99.90;;;;;;5010670;28;20062;-73
2023/01/05 01:50:30;;;;;;;1999.90;999.90;;;12.20;99.90;;;;;;4981117;28;20053;-74
2023/01/05 01:53:05;;;;;;;1999.90;999.90;;;12.30;99.90;;;;;;4995598;28;20034;-73
2023/01/05 01:55:32;;;;;;;1999.90;999.90;;;12.30;99.90;;;;;;4995530;28;20030;-73
2023/01/05 01:58:00;;;;;;;1999.90;999.90;;;12.30;99.90;;;;;;4995546;28;20515;-74
2023/01/05 02:00:25;;;;;;;1999.90;999.90;;;12.30;99.90;;;;;;4995091;28;20078;-73
2023/01/05 02:02:53;;;;;;;1999.90;999.90;;;12.30;99.90;;;;;;4977441;28;20089;-73
2023/01/05 02:05:26;;;;;;;1999.90;999.90;;;12.30;99.90;;;;;;4995519;28;20115;-73
2023/01/05 02:07:51;;;;;;;1999.90;999.90;;;12.30;99.90;;;;;;5009868;28;20035;-73
2023/01/05 02:10:27;;;;;;;1999.90;999.90;;;12.30;99.90;;;;;;4995474;28;20035;-73
2023/01/05 02:13:09;;;;;;;1999.90;999.90;;;12.30;99.90;;;;;;4995228;28;20568;-73
2023/01/05 02:15:57;;;;;;;1999.90;999.90;;;12.20;99.90;;;;;;4977576;28;20046;-75
2023/01/05 02:18:51;;;;;;;1999.90;999.90;;;12.20;99.90;;;;;;4995287;28;20477;-75
2023/01/05 02:21:28;;;;;;;1999.90;999.90;;;12.20;99.90;;;;;;4992710;28;20114;-75
2023/01/05 02:24:04;;;;;;;1999.90;999.90;;;12.20;99.90;;;;;;4993639;28;20515;-75
2023/01/05 02:27:07;;;;;;;1999.90;999.90;;;12.20;99.90;;;;;;4993607;28;20034;-75
2023/01/05 02:30:00;;;;;;;1999.90;999.90;;;12.20;99.90;;;;;;4994814;28;20517;-75
2023/01/05 02:35:30;;;;;;;1999.90;999.90;;;12.20;99.90;;;;;;5052334;28;20053;-73
2023/01/05 02:38:08;;;;;;;1999.90;999.90;;;12.20;99.90;;;;;;5054604;28;20033;-73
2023/01/05 02:40:46;;;;;;;1999.90;999.90;;;12.20;99.90;;;;;;5054594;28;20026;-76
2023/01/05 02:43:14;;;;;;;1999.90;999.90;;;12.20;99.90;;;;;;5052902;28;20056;-73
2023/01/05 02:45:39;;;;;;;1999.90;999.90;;;12.00;99.90;;;;;;5054027;28;20026;-76
2023/01/05 02:48:05;;;;;;;1999.90;999.90;;;11.90;99.90;;;;;;5054477;28;20037;-74
2023/01/05 02:50:46;;;;;;;1999.90;999.90;;;11.80;99.90;;;;;;5054521;28;20080;-74
2023/01/05 02:53:25;;;;;;;1999.90;999.90;;;11.80;99.90;;;;;;5054071;28;20117;-74
2023/01/05 02:56:00;;;;;;;1999.90;999.90;;;11.80;99.90;;;;;;5053365;28;20017;-74
2023/01/05 02:58:34;;;;;;;1999.90;999.90;;;11.90;99.90;;;;;;5054199;28;20069;-74
2023/01/05 03:01:01;;;;;;;1999.90;999.90;;;11.90;99.90;;;;;;5054085;28;20036;-74
2023/01/05 03:03:43;;;;;;;1999.90;999.90;;;11.90;99.90;;;;;;5053563;28;20052;-74
2023/01/05 03:06:11;;;;;;;1999.90;999.90;;;12.00;99.90;;;;;;5054047;28;20029;-76
2023/01/05 03:08:41;;;;;;;1999.90;999.90;;;12.20;99.90;;;;;;5054006;28;20065;-74
2023/01/05 03:14:05;;;;;;;1999.90;999.90;;;12.20;99.90;;;;;;5054000;28;20097;-75
2023/01/05 03:16:35;;;;;;;1999.90;999.90;;;12.20;99.90;;;;;;5054132;28;20025;-75
2023/01/05 03:35:44;;;;;;;1999.90;999.90;;;12.20;99.90;;;;;;5094039;28;20033;-75
2023/01/05 03:38:16;;;;;;;1999.90;999.90;;;12.10;99.90;;;;;;5093880;28;20029;-75
2023/01/05 03:40:43;;;;;;;1999.90;999.90;;;12.10;99.90;;;;;;5094844;28;20032;-75
2023/01/05 03:43:09;;;;;;;1999.90;999.90;;;12.10;99.90;;;;;;5097469;28;20020;-75
2023/01/05 03:45:39;;;;;;;1999.90;999.90;;;12.10;99.90;;;;;;5097292;28;20162;-76
2023/01/05 03:48:05;;;;;;;1999.90;999.90;;;12.10;99.90;;;;;;5097213;28;20078;-75
2023/01/05 03:50:31;;;;;;;1999.90;999.90;;;12.10;99.90;;;;;;5097528;28;20032;-75
2023/01/05 03:52:56;;;;;;;1999.90;999.90;;;12.10;99.90;;;;;;5096748;28;20032;-75
2023/01/05 03:55:22;;;;;;;1999.90;999.90;;;12.10;99.90;;;;;;5098824;28;20044;-75
2023/01/05 03:57:47;;;;;;;1999.90;999.90;;;12.10;99.90;;;;;;5086528;28;20040;-75
2023/01/05 04:00:14;;;;;;;1999.90;999.90;;;12.20;99.90;;;;;;5079884;28;20036;-75
2023/01/05 04:02:39;;;;;;;1999.90;999.90;;;12.10;99.90;;;;;;5096517;28;20044;-75
2023/01/05 04:05:05;;;;;;;1999.90;999.90;;;12.20;99.90;;;;;;5097145;28;20094;-75
2023/01/05 04:07:30;;;;;;;1999.90;999.90;;;12.20;99.90;;;;;;5096754;28;20040;-75
2023/01/05 04:09:56;;;;;;;1999.90;999.90;;;12.10;99.90;;;;;;5097191;28;20049;-75
2023/01/05 04:12:22;;;;;;;1999.90;999.90;;;12.10;99.90;;;;;;5096898;28;20375;-73
2023/01/05 04:14:47;;;;;;;1999.90;999.90;;;12.20;99.90;;;;;;5096707;28;20478;-75
2023/01/05 04:17:13;;;;;;;1999.90;999.90;;;12.10;99.90;;;;;;5096765;28;20064;-75
2023/01/05 04:19:38;;;;;;;1999.90;999.90;;;12.10;99.90;;;;;;5097209;28;20063;-75
2023/01/05 04:22:04;;;;;;;1999.90;999.90;;;12.10;99.90;;;;;;5096412;28;20071;-75
2023/01/05 04:24:29;;;;;;;1999.90;999.90;;;12.10;99.90;;;;;;5096645;28;20044;-76
2023/01/05 04:26:55;;;;;;;1999.90;999.90;;;12.10;99.90;;;;;;5096849;28;20055;-75
2023/01/05 04:29:20;;;;;;;1999.90;999.90;;;12.00;99.90;;;;;;5097013;28;20036;-75
2023/01/05 04:31:46;;;;;;;1999.90;999.90;;;12.10;99.90;;;;;;5096517;28;20477;-75
2023/01/05 04:34:11;;;;;;;1999.90;999.90;;;12.10;99.90;;;;;;5095827;28;20501;-75
2023/01/05 04:36:37;;;;;;;1999.90;999.90;;;12.00;99.90;;;;;;5096552;28;20036;-75
2023/01/05 04:39:02;;;;;;;1999.90;999.90;;;12.00;99.90;;;;;;5096722;28;20032;-75
2023/01/05 04:41:28;;;;;;;1999.90;999.90;;;11.90;99.90;;;;;;5096518;28;20039;-76
2023/01/05 04:43:53;;;;;;;1999.90;999.90;;;12.00;99.90;;;;;;5096037;28;21610;-76
2023/01/05 04:46:19;;;;;;;1999.90;999.90;;;11.90;99.90;;;;;;5094918;28;20036;-75
2023/01/05 04:48:44;;;;;;;1999.90;999.90;;;11.90;99.90;;;;;;5096610;28;20033;-75
2023/01/05 04:51:10;;;;;;;1999.90;999.90;;;11.80;99.90;;;;;;5096273;28;20397;-75
2023/01/05 04:53:35;;;;;;;1999.90;999.90;;;11.80;99.90;;;;;;5095846;28;20045;-76
2023/01/05 04:56:01;;;;;;;1999.90;999.90;;;11.70;99.90;;;;;;5096092;28;20033;-75
2023/01/05 04:58:26;;;;;;;1999.90;999.90;;;11.70;99.90;;;;;;5096497;28;20044;-75
2023/01/05 05:00:52;;;;;;;1999.90;999.90;;;11.70;99.90;;;;;;5094657;28;20040;-75
2023/01/05 05:03:17;;;;;;;1999.90;999.90;;;11.60;99.90;;;;;;5095479;28;20032;-76
2023/01/05 05:05:43;;;;;;;1999.90;999.90;;;11.60;99.90;;;;;;5095901;28;20059;-75
2023/01/05 05:08:09;;;;;;;1999.90;999.90;;;11.60;99.90;;;;;;5077716;28;20063;-75
2023/01/05 05:10:34;;;;;;;1999.90;999.90;;;11.60;99.90;;;;;;5096006;28;20037;-76
2023/01/05 05:13:00;;;;;;;1999.90;999.90;;;11.60;99.90;;;;;;5077073;28;20774;-76
2023/01/05 05:15:25;;;;;;;1999.90;999.90;;;11.60;99.90;;;;;;5096033;28;20090;-75
2023/01/05 05:17:51;;;;;;;1999.90;999.90;;;11.60;99.90;;;;;;5094193;28;20425;-75
2023/01/05 05:20:16;;;;;;;1999.90;999.90;;;11.60;99.90;;;;;;5094166;28;20509;-75
2023/01/05 05:22:42;;;;;;;1999.90;999.90;;;11.60;99.90;;;;;;5095442;28;20037;-76
2023/01/05 05:25:08;;;;;;;1999.90;999.90;;;11.50;99.90;;;;;;5095907;28;20041;-75
2023/01/05 05:27:33;;;;;;;1999.90;999.90;;;11.50;99.90;;;;;;5095562;28;20107;-75
2023/01/05 05:29:59;;;;;;;1999.90;999.90;;;11.50;99.90;;;;;;5095928;28;20081;-76
2023/01/05 05:32:24;;;;;;;1999.90;999.90;;;11.50;99.90;;;;;;5095388;28;20040;-75
2023/01/05 05:34:50;;;;;;;1999.90;999.90;;;11.50;99.90;;;;;;5095344;28;20044;-75
2023/01/05 05:37:15;;;;;;;1999.90;999.90;;;11.50;99.90;;;;;;5095388;28;20028;-76
2023/01/05 05:39:41;;;;;;;1999.90;999.90;;;11.40;99.90;;;;;;5077209;28;20402;-76
2023/01/05 05:42:06;;;;;;;1999.90;999.90;;;11.40;99.90;;;;;;5095478;28;20491;-75
2023/01/05 05:44:32;;;;;;;1999.90;999.90;;;11.40;99.90;;;;;;5077145;28;20032;-75
2023/01/05 05:46:57;;;;;;;1999.90;999.90;;;11.40;99.90;;;;;;5095709;28;20043;-76
2023/01/05 05:49:23;;;;;;;1999.90;999.90;;;11.40;99.90;;;;;;5095588;28;20037;-75
2023/01/05 05:51:48;;;;;;;1999.90;999.90;;;11.40;99.90;;;;;;5095088;28;20032;-76
2023/01/05 05:54:14;;;;;;;1999.90;999.90;;;11.30;99.90;;;;;;5095211;28;20479;-76
2023/01/05 05:56:39;;;;;;;1999.90;999.90;;;11.30;99.90;;;;;;5095307;28;20482;-76
2023/01/05 05:59:05;;;;;;;1999.90;999.90;;;11.30;99.90;;;;;;5076922;28;20032;-75
2023/01/05 06:01:31;;;;;;;1999.90;999.90;;;11.30;99.90;;;;;;5076633;28;20082;-76
2023/01/05 06:03:56;;;;;;;1999.90;999.90;;;11.20;99.90;;;;;;5094552;28;20040;-75
2023/01/05 06:06:22;;;;;;;1999.90;999.90;;;11.20;99.90;;;;;;5094922;28;20033;-75
2023/01/05 06:08:47;;;;;;;1999.90;999.90;;;11.20;99.90;;;;;;5095417;28;20037;-75
2023/01/05 06:11:13;;;;;;;1999.90;999.90;;;11.20;99.90;;;;;;5095161;28;20044;-75
2023/01/05 06:13:38;;;;;;;1999.90;999.90;;;11.10;99.90;;;;;;5093343;28;20040;-75
2023/01/05 06:16:04;;;;;;;1999.90;999.90;;;11.10;99.90;;;;;;5076762;28;20421;-75
2023/01/05 06:18:30;;;;;;;1999.90;999.90;;;11.10;99.90;;;;;;5095242;28;20037;-76
2023/01/05 06:20:55;;;;;;;1999.90;999.90;;;11.00;99.90;;;;;;5076368;28;20517;-76
2023/01/05 06:23:21;;;;;;;1999.90;999.90;;;11.00;99.90;;;;;;5094928;28;20394;-75
2023/01/05 06:25:46;;;;;;;1999.90;999.90;;;11.00;99.90;;;;;;5095151;28;20033;-75
2023/01/05 06:28:12;;;;;;;1999.90;999.90;;;11.00;99.90;;;;;;5095016;28;20098;-75
2023/01/05 06:30:37;;;;;;;1999.90;999.90;;;11.10;99.90;;;;;;5080910;28;20064;-75
2023/01/05 06:33:03;;;;;;;1999.90;999.90;;;11.00;99.90;;;;;;5098490;28;20047;-75
2023/01/05 06:35:28;;;;;;;1999.90;999.90;;;11.10;99.90;;;;;;5094219;28;20430;-75
2023/01/05 06:37:54;;;;;;;1999.90;999.90;;;11.20;99.90;;;;;;5094653;28;20036;-75
2023/01/05 06:40:20;;;;;;;1999.90;999.90;;;11.20;99.90;;;;;;5094909;28;20086;-75
2023/01/05 06:42:45;;;;;;;1999.90;999.90;;;11.20;99.90;;;;;;5094518;28;20031;-76
2023/01/05 06:45:15;;;;;;;1999.90;999.90;;;11.20;99.90;;;;;;5095012;28;20089;-76
2023/01/05 06:47:41;;;;;;;1999.90;999.90;;;11.20;99.90;;;;;;5074693;28;20029;-75
2023/01/05 06:50:07;;;;;;;1999.90;999.90;;;11.20;99.90;;;;;;5089623;28;20041;-75
2023/01/05 06:52:38;;;;;;;1999.90;999.90;;;11.20;99.90;;;;;;5094080;28;20028;-75
2023/01/05 06:55:09;;;;;;;1999.90;999.90;;;11.20;99.90;;;;;;5093205;28;20706;-76
2023/01/05 06:57:35;;;;;;;1999.90;999.90;;;11.10;99.90;;;;;;5094911;28;20044;-75
2023/01/05 07:00:03;;;;;;;1999.90;999.90;;;11.10;99.90;;;;;;5094581;28;20040;-75
2023/01/05 07:02:28;;;;;;;1999.90;999.90;;;11.10;99.90;;;;;;5094221;28;20056;-75
2023/01/05 07:04:54;;;;;;;1999.90;999.90;;;11.10;99.90;;;;;;5076075;28;20529;-75
2023/01/05 07:07:19;;;;;;;1999.90;999.90;;;11.10;99.90;;;;;;5094315;28;20033;-75
2023/01/05 07:09:48;;;;;;;1999.90;999.90;;;11.00;99.90;;;;;;5094534;28;20044;-75
2023/01/05 07:12:14;;;;;;;1999.90;999.90;;;11.00;99.90;;;;;;5094093;28;20024;-75
2023/01/05 07:14:39;;;;;;;1999.90;999.90;;;11.00;99.90;;;;;;5094065;28;20044;-75
2023/01/05 07:17:05;;;;;;;1999.90;999.90;;;10.90;99.90;;;;;;5095402;28;20792;-75
2023/01/05 07:19:30;;;;;;;1999.90;999.90;;;11.00;99.90;;;;;;5079762;28;20132;-76
2023/01/05 07:21:57;;;;;;;1999.90;999.90;;;11.00;99.90;;;;;;5098649;28;20086;-75
2023/01/05 07:24:23;;;;;;;1999.90;999.90;;;10.90;99.90;;;;;;5097416;28;20652;-75
2023/01/05 07:26:49;;;;;;;1999.90;999.90;;;10.90;99.90;;;;;;5097543;28;20330;-75
2023/01/05 07:29:15;;;;;;;1999.90;999.90;;;10.90;99.90;;;;;;5097710;28;20043;-75
2023/01/05 07:31:40;;;;;;;1999.90;999.90;;;10.80;99.90;;;;;;5097403;28;20040;-75
2023/01/05 07:34:06;;;;;;;1999.90;999.90;;;10.80;99.90;;;;;;5097287;28;20080;-76
2023/01/05 07:36:32;;;;;;;1999.90;999.90;;;10.80;99.90;;;;;;5097668;28;20066;-76
2023/01/05 07:38:58;;;;;;;1999.90;999.90;;;10.90;99.90;;;;;;5097454;28;20120;-76
2023/01/05 07:41:23;;;;;;;1999.90;999.90;;;10.80;99.90;;;;;;5097229;28;20115;-76
2023/01/05 07:43:49;;;;;;;1999.90;999.90;;;10.90;99.90;;;;;;5098774;28;20127;-76
2023/01/05 07:46:15;;;;;;;1999.90;999.90;;;10.90;99.90;;;;;;5097725;28;20067;-76
2023/01/05 07:48:41;;;;;;;1999.90;999.90;;;10.90;99.90;;;;;;5080227;28;20095;-76
2023/01/05 07:51:07;;;;;;;1999.90;999.90;;;10.80;99.90;;;;;;5098841;28;20039;-75
2023/01/05 07:53:36;;;;;;;1999.90;999.90;;;10.90;99.90;;;;;;5098700;28;20121;-76
2023/01/05 07:56:01;;;;;;;1999.90;999.90;;;10.90;99.90;;;;;;5097731;28;20082;-76
2023/01/05 07:58:28;;;;;;;1999.90;999.90;;;10.90;99.90;;;;;;5099562;28;20460;-75
2023/01/05 08:00:54;;;;;;;1999.90;999.90;;;10.90;99.90;;;;;;5099648;28;20056;-77
2023/01/05 08:03:20;;;;;;;1999.90;999.90;;;11.00;99.90;;;;;;5098904;28;20059;-75
2023/01/05 08:05:46;;;;;;;1999.90;999.90;;;11.00;99.90;;;;;;5098859;28;20402;-76
2023/01/05 08:08:13;;;;;;;1999.90;999.90;;;11.00;99.90;;;;;;5097304;28;20044;-76
2023/01/05 08:28:46;;;;;;;1999.90;999.90;;;11.20;99.90;;;;;;6043648;23;20002;-77
2023/01/05 08:31:22;;;;;;;1999.90;999.90;;;11.30;99.90;;;;;;4987240;28;20098;-77
2023/01/05 08:33:48;;;;;;;1999.90;999.90;;;11.20;99.90;;;;;;4992813;28;20105;-76
2023/01/05 08:36:17;;;;;;;1999.90;999.90;;;11.20;99.90;;;;;;4991168;28;20043;-76
2023/01/05 08:38:47;;;;;;;1999.90;999.90;;;11.20;99.90;;;;;;4997437;28;20042;-76
2023/01/05 08:41:21;;;;;;;1999.90;999.90;;;11.20;99.90;;;;;;4989602;23;20040;-75
2023/01/05 08:43:51;;;;;;;1999.90;999.90;;;11.30;99.90;;;;;;4947298;28;20075;-76
2023/01/05 08:46:21;;;;;;;1999.90;999.90;;;11.30;99.90;;;;;;4966995;28;20047;-76
2023/01/05 08:48:55;;;;;;;1999.90;999.90;;;11.30;99.90;;;;;;4916255;28;20498;-76
2023/01/05 08:51:21;;;;;;;1999.90;999.90;;;11.30;99.90;;;;;;4899030;28;20116;-76
2023/01/05 08:56:23;;;;;;;1999.90;999.90;;;11.30;99.90;;;;;;5192022;27;20572;-76
2023/01/05 08:58:49;;;;;;;1999.90;999.90;;;11.30;99.90;;;;;;5166171;27;20130;-77
2023/01/05 09:01:16;;;;;;;1999.90;999.90;;;11.30;99.90;;;;;;5169883;27;20039;-77
2023/01/05 09:03:42;;;;;;;1999.90;999.90;;;11.30;99.90;;;;;;5148807;27;20062;-77
2023/01/05 09:06:10;;;;;;;1999.90;999.90;;;11.30;99.90;;;;;;5127923;27;20071;-77
2023/01/05 09:08:37;;;;;;;1999.90;999.90;;;11.30;99.90;;;;;;5065592;23;20068;-77
2023/01/05 09:11:08;;;;;;;1999.90;999.90;;;11.40;99.90;;;;;;5049005;28;20038;-76
2023/01/05 09:13:34;;;;;;;1999.90;999.90;;;11.40;99.90;;;;;;5046608;28;20050;-76
2023/01/05 09:16:05;;;;;;;1999.90;999.90;;;11.40;99.90;;;;;;5025178;28;20133;-76
2023/01/05 09:19:37;;;;;;;1999.90;999.90;;;11.40;99.90;;;;;;5132025;27;20880;-77
2023/01/05 09:22:03;;;;;;;1999.90;999.90;;;11.40;99.90;;;;;;5132854;27;20036;-76
2023/01/05 09:24:29;;;;;;;1999.90;999.90;;;11.50;99.90;;;;;;5133348;27;20024;-77
2023/01/05 09:26:55;;;;;;;1999.90;999.90;;;11.50;99.90;;;;;;5132529;27;20040;-77
2023/01/05 09:29:21;;;;;;;1999.90;999.90;;;11.50;99.90;;;;;;5133403;27;20024;-76
2023/01/05 09:31:47;;;;;;;1999.90;999.90;;;11.50;99.90;;;;;;5114830;27;20195;-76
2023/01/05 09:34:12;;;;;;;1999.90;999.90;;;11.50;99.90;;;;;;5112500;28;20489;-74
2023/01/05 09:36:38;;;;;;;1999.90;999.90;;;11.50;99.90;;;;;;5112222;27;20543;-75
2023/01/05 09:39:04;;;;;;;1999.90;999.90;;;11.50;99.90;;;;;;5111843;27;20049;-75
2023/01/05 09:41:50;;;;;;;1999.90;999.90;;;11.50;99.90;;;;;;5110680;28;20115;-75
2023/01/05 09:44:29;;;;;;;1999.90;999.90;;;11.60;99.90;;;;;;5110157;27;20048;-75
2023/01/05 09:47:00;;;;;;;1999.90;999.90;;;11.60;99.90;;;;;;5111022;27;20481;-75
2023/01/05 09:49:28;;;;;;;1999.90;999.90;;;11.60;99.90;;;;;;5112130;27;20036;-74
2023/01/05 09:52:08;;;;;;;1999.90;999.90;;;11.50;99.90;;;;;;5111530;28;20461;-75
2023/01/05 09:54:35;;;;;;;1999.90;999.90;;;11.50;99.90;;;;;;5111745;27;20040;-75
2023/01/05 09:57:03;;;;;;;1999.90;999.90;;;11.50;99.90;;;;;;5127021;27;20032;-74
2023/01/05 09:59:37;;;;;;;1999.90;999.90;;;11.50;99.90;;;;;;5130241;27;20040;-75
2023/01/05 10:02:13;;;;;;;1999.90;999.90;;;11.60;99.90;;;;;;5132111;27;20038;-75
2023/01/05 10:04:39;;;;;;;1999.90;999.90;;;11.60;99.90;;;;;;5130564;27;20109;-75
2023/01/05 10:07:12;;;;;;;1999.90;999.90;;;11.70;99.90;;;;;;5113794;27;20037;-75
2023/01/05 10:09:38;;;;;;;1999.90;999.90;;;11.80;99.90;;;;;;5122830;27;20036;-75
2023/01/05 10:15:17;;;;;;;1999.90;999.90;;;11.90;99.90;;;;;;5132171;27;20496;-74
2023/01/05 10:17:43;;;;;;;1999.90;999.90;;;11.90;99.90;;;;;;5121210;27;20059;-74
2023/01/05 10:20:21;;;;;;;1999.90;999.90;;;11.90;99.90;;;;;;5111693;27;20086;-74
2023/01/05 10:23:18;;;;;;;1999.90;999.90;;;12.00;99.90;;;;;;5126249;27;20039;-75
2023/01/05 10:26:04;;;;;;;1999.90;999.90;;;12.10;99.90;;;;;;5131704;27;20223;-75
2023/01/05 10:28:43;;;;;;;1999.90;999.90;;;12.10;99.90;;;;;;5109046;28;20558;-74
2023/01/05 10:31:23;;;;;;;1999.90;999.90;;;12.10;99.90;;;;;;5096723;27;20036;-75
2023/01/05 10:34:02;;;;;;;1999.90;999.90;;;12.10;99.90;;;;;;5104527;27;20035;-75
2023/01/05 10:36:31;;;;;;;1999.90;999.90;;;12.20;99.90;;;;;;5101840;28;20035;-75
2023/01/05 10:39:10;;;;;;;1999.90;999.90;;;12.20;99.90;;;;;;5098244;28;20052;-74
2023/01/05 10:41:51;;;;;;;1999.90;999.90;;;12.30;99.90;;;;;;5100731;27;20024;-75
2023/01/05 10:44:46;;;;;;;1999.90;999.90;;;12.30;99.90;;;;;;5096933;28;20497;-75
2023/01/05 10:47:12;;;;;;;1999.90;999.90;;;12.20;99.90;;;;;;5108113;28;20110;-75
2023/01/05 10:49:41;;;;;;;1999.90;999.90;;;12.20;99.90;;;;;;5105112;27;20128;-75
2023/01/05 10:52:13;;;;;;;1999.90;999.90;;;12.10;99.90;;;;;;5096633;28;20488;-75
2023/01/05 10:54:44;;;;;;;1999.90;999.90;;;12.00;99.90;;;;;;5097405;28;20422;-75
2023/01/05 10:57:29;;;;;;;1999.90;999.90;;;12.10;99.90;;;;;;5115234;28;20066;-75
2023/01/05 10:59:56;;;;;;;1999.90;999.90;;;12.10;99.90;;;;;;5115657;28;20039;-75
2023/01/05 11:02:28;;;;;;;1999.90;999.90;;;12.10;99.90;;;;;;5117136;27;20030;-75
2023/01/05 11:04:59;;;;;;;1999.90;999.90;;;12.10;99.90;;;;;;5116901;27;20032;-74
2023/01/05 11:07:25;;;;;;;1999.90;999.90;;;12.10;99.90;;;;;;5116746;27;20036;-74
2023/01/05 11:09:50;;;;;;;1999.90;999.90;;;12.20;99.90;;;;;;5103877;27;20390;-75
2023/01/05 11:12:22;;;;;;;1999.90;999.90;;;12.30;99.90;;;;;;5096680;28;20033;-75
2023/01/05 11:14:56;;;;;;;1999.90;999.90;;;12.40;99.90;;;;;;5096283;28;20036;-74
2023/01/05 11:17:25;;;;;;;1999.90;999.90;;;12.40;99.90;;;;;;5095635;28;20028;-75
2023/01/05 11:19:53;;;;;;;1999.90;999.90;;;12.40;99.90;;;;;;5095041;28;20071;-75
2023/01/05 11:22:46;;;;;;;1999.90;999.90;;;12.40;99.90;;;;;;5096324;28;20028;-75
2023/01/05 11:25:32;;;;;;;1999.90;999.90;;;12.40;99.90;;;;;;5096083;28;20409;-75
2023/01/05 11:28:14;;;;;;;1999.90;999.90;;;12.40;99.90;;;;;;5095832;28;20036;-75
2023/01/05 11:31:03;;;;;;;1999.90;999.90;;;12.30;99.90;;;;;;5096815;28;20063;-74
2023/01/05 11:33:32;;;;;;;1999.90;999.90;;;12.20;99.90;;;;;;5108128;28;20509;-76
2023/01/05 11:35:58;;;;;;;1999.90;999.90;;;12.00;99.90;;;;;;5113333;27;20051;-77
2023/01/05 11:38:28;;;;;;;1999.90;999.90;;;11.90;99.90;;;;;;5114978;27;20075;-75
2023/01/05 11:40:55;;;;;;;1999.90;999.90;;;11.80;99.90;;;;;;5114941;27;20036;-75
2023/01/05 11:43:23;;;;;;;1999.90;999.90;;;11.80;99.90;;;;;;5116213;28;20032;-75
2023/01/05 11:45:53;;;;;;;1999.90;999.90;;;11.80;99.90;;;;;;5115557;27;20032;-75
2023/01/05 11:48:22;;;;;;;1999.90;999.90;;;11.80;99.90;;;;;;5114091;27;20036;-76
2023/01/05 11:50:50;;;;;;;1999.90;999.90;;;11.80;99.90;;;;;;5094195;28;20043;-75
2023/01/05 11:53:25;;;;;;;1999.90;999.90;;;12.00;99.90;;;;;;5095282;28;20514;-75
2023/01/05 11:56:00;;;;;;;1999.90;999.90;;;12.20;99.90;;;;;;5093991;28;20037;-75
2023/01/05 11:58:31;;;;;;;1999.90;999.90;;;12.40;99.90;;;;;;5093977;28;20052;-75
2023/01/05 12:01:18;;;;;;;1999.90;999.90;;;12.30;99.90;;;;;;5095861;27;20037;-75
2023/01/05 12:04:05;;;;;;;1999.90;999.90;;;12.00;99.90;;;;;;5094034;28;20508;-75
2023/01/05 12:06:33;;;;;;;1999.90;999.90;;;12.00;99.90;;;;;;5093682;28;20067;-75
2023/01/05 12:09:11;;;;;;;1999.90;999.90;;;11.80;99.90;;;;;;5095247;28;20115;-75
2023/01/05 12:11:49;;;;;;;1999.90;999.90;;;11.70;99.90;;;;;;5095404;28;20115;-74
2023/01/05 12:14:34;;;;;;;1999.90;999.90;;;11.60;99.90;;;;;;5112614;28;20090;-74
2023/01/05 12:17:11;;;;;;;1999.90;999.90;;;11.60;99.90;;;;;;5113844;27;20086;-75
2023/01/05 12:20:12;;;;;;;1999.90;999.90;;;11.70;99.90;;;;;;5115438;27;20611;-75
2023/01/05 12:22:55;;;;;;;1999.90;999.90;;;11.80;99.90;;;;;;5115511;27;20036;-75
2023/01/05 12:25:39;;;;;;;1999.90;999.90;;;11.80;99.90;;;;;;5101674;27;20602;-75
2023/01/05 12:28:25;;;;;;;1999.90;999.90;;;11.90;99.90;;;;;;5110073;28;20081;-75
2023/01/05 12:31:14;;;;;;;1999.90;999.90;;;11.90;99.90;;;;;;5093586;28;20631;-75
2023/01/05 12:34:01;;;;;;;1999.90;999.90;;;11.90;99.90;;;;;;5095222;28;20040;-75
2023/01/05 12:36:38;;;;;;;1999.90;999.90;;;11.90;99.90;;;;;;5099983;28;20032;-75
2023/01/05 12:39:27;;;;;;;1999.90;999.90;;;12.00;99.90;;;;;;5094583;28;20477;-75
2023/01/05 12:42:05;;;;;;;1999.90;999.90;;;11.90;99.90;;;;;;5095168;28;20029;-75
2023/01/05 12:45:16;;;;;;;1999.90;999.90;;;11.90;99.90;;;;;;5095028;28;20136;-75
2023/01/05 12:48:06;;;;;;;1999.90;999.90;;;11.90;99.90;;;;;;5103639;27;20039;-75
2023/01/05 12:51:02;;;;;;;1999.90;999.90;;;12.00;99.90;;;;;;5096112;27;20039;-74
2023/01/05 12:53:38;;;;;;;1999.90;999.90;;;11.90;99.90;;;;;;5094868;28;20033;-74
2023/01/05 12:56:28;;;;;;;1999.90;999.90;;;11.90;99.90;;;;;;5094916;28;20493;-74
2023/01/05 12:58:56;;;;;;;1999.90;999.90;;;12.00;99.90;;;;;;5095122;28;20044;-75
2023/01/05 13:01:27;;;;;;;1999.90;999.90;;;12.00;99.90;;;;;;5093568;28;20028;-75
2023/01/05 13:04:23;;;;;;;1999.90;999.90;;;12.00;99.90;;;;;;5095234;28;20062;-75
2023/01/05 13:06:51;;;;;;;1999.90;999.90;;;12.10;99.90;;;;;;5094748;28;20520;-75
2023/01/05 13:09:24;;;;;;;1999.90;999.90;;;12.20;99.90;;;;;;5094936;28;20036;-74
2023/01/05 13:12:00;;;;;;;1999.90;999.90;;;12.20;99.90;;;;;;5094946;28;20025;-74
2023/01/05 13:14:33;;;;;;;1999.90;999.90;;;12.30;99.90;;;;;;5093647;28;20028;-74